Time;durP1;ratioP1;P1;durP2;ratioP2;P2;SDS_P1;SDS_P2;PMS_P1;PMS_P2;Temp;Humidity;BMP_temperature;BMP_pressure;BME280_temperature;BME280_humidity;BME280_pressure;Samples;Min_cycle;Max_cycle;Signal;HPM_P1;HPM_P2
2021/01/10 00:04:04;;;;;;;;;;;;;;;;;;;;;
2021/01/10 00:07:00;;;;;;;;;;;;;;;;;;;;;
2021/01/10 00:09:39;;;;;;;;;;;;;;;;;;;;;
2021/01/10 00:15:46;;;;;;;29.58;13.80;;;1.90;99.90;;;;;;4857050;29;20049;-82
2021/01/10 00:18:42;;;;;;;;;;;;;;;;;;;;;
2021/01/10 00:21:22;;;;;;;;;;;;;;;;;;;;;
2021/01/10 00:27:02;;;;;;;22.38;10.15;;;1.90;99.90;;;;;;4792481;30;20043;-82
2021/01/10 00:29:58;;;;;;;;;;;;;;;;;;;;;
2021/01/10 00:32:40;;;;;;;26.92;10.82;;;1.90;99.90;;;;;;4890677;29;20108;-82
2021/01/10 00:36:07;;;;;;;26.80;10.65;;;1.90;99.90;;;;;;4885408;29;20040;-80
2021/01/10 00:41:40;;;;;;;17.23;8.75;;;1.90;99.90;;;;;;4865087;29;20025;-80
2021/01/10 00:47:57;;;;;;;;;;;;;;;;;;;;;
2021/01/10 00:50:43;;;;;;;20.58;9.63;;;1.90;99.90;;;;;;4876594;29;20471;-84
2021/01/10 00:53:31;;;;;;;16.90;8.25;;;1.80;99.90;;;;;;4877824;29;20053;-83
2021/01/10 00:56:17;;;;;;;16.80;8.15;;;1.80;99.90;;;;;;4882544;29;20132;-84
2021/01/10 00:59:09;;;;;;;17.35;8.95;;;1.80;99.90;;;;;;4880324;29;20041;-83
2021/01/10 01:01:50;;;;;;;;;;;;;;;;;;;;;
2021/01/10 01:04:47;;;;;;;21.08;8.70;;;1.70;99.90;;;;;;4870322;29;20370;-83
2021/01/10 01:10:20;;;;;;;17.48;8.85;;;1.70;99.90;;;;;;4869909;29;20274;-80
2021/01/10 01:12:49;;;;;;;18.65;8.55;;;1.70;99.90;;;;;;4876634;29;20033;-84
2021/01/10 01:15:16;;;;;;;25.63;8.70;;;1.70;99.90;;;;;;4881698;29;20028;-79
2021/01/10 01:18:12;;;;;;;;;;;;;;;;;;;;;
2021/01/10 01:21:19;;;;;;;;;;;;;;;;;;;;;
2021/01/10 01:23:55;;;;;;;18.95;9.45;;;1.80;99.90;;;;;;4868890;29;20039;-81
2021/01/10 01:26:56;;;;;;;;;;;;;;;;;;;;;
2021/01/10 01:30:01;;;;;;;;;;;;;;;;;;;;;
2021/01/10 01:33:00;;;;;;;;;;;;;;;;;;;;;
2021/01/10 01:35:36;;;;;;;;;;;;;;;;;;;;;
2021/01/10 01:38:35;;;;;;;;;;;;;;;;;;;;;
2021/01/10 01:45:04;;;;;;;;;;;;;;;;;;;;;
2021/01/10 01:51:12;;;;;;;;;;;;;;;;;;;;;
2021/01/10 01:53:48;;;;;;;13.23;6.53;;;2.30;99.90;;;;;;4847538;29;20378;-82
2021/01/10 02:00:11;;;;;;;;;;;;;;;;;;;;;
2021/01/10 02:06:21;;;;;;;16.58;6.57;;;2.20;99.90;;;;;;4863509;29;20045;-82
2021/01/10 02:09:12;;;;;;;15.07;6.75;;;2.10;99.90;;;;;;4830859;29;20037;-82
2021/01/10 02:11:47;;;;;;;12.48;7.20;;;2.10;99.90;;;;;;4830255;29;20034;-82
2021/01/10 02:14:18;;;;;;;21.60;7.35;;;2.00;99.90;;;;;;4879199;29;20116;-82
2021/01/10 02:16:44;;;;;;;14.88;6.55;;;1.90;99.90;;;;;;4871180;29;20028;-77
2021/01/10 02:19:22;;;;;;;15.65;6.57;;;1.90;99.90;;;;;;4868398;29;20066;-81
2021/01/10 02:21:51;;;;;;;13.45;6.53;;;1.90;99.90;;;;;;4867175;29;20060;-79
2021/01/10 02:24:19;;;;;;;14.07;6.63;;;1.90;99.90;;;;;;4868444;29;20367;-82
2021/01/10 02:26:48;;;;;;;15.27;5.93;;;1.90;99.90;;;;;;4883343;29;20157;-81
2021/01/10 02:29:33;;;;;;;;;;;;;;;;;;;;;
2021/01/10 02:32:33;;;;;;;;;;;;;;;;;;;;;
2021/01/10 02:35:04;;;;;;;10.13;5.78;;;2.10;99.90;;;;;;4862018;29;20044;-81
2021/01/10 02:38:01;;;;;;;18.42;6.43;;;2.10;99.90;;;;;;4872317;29;20399;-81
2021/01/10 02:41:14;;;;;;;10.83;6.53;;;2.20;99.90;;;;;;4870889;29;20037;-80
2021/01/10 02:43:46;;;;;;;16.58;7.00;;;2.20;99.90;;;;;;4838219;29;20290;-78
2021/01/10 02:46:13;;;;;;;18.77;7.88;;;2.20;99.90;;;;;;4873542;29;20041;-82
2021/01/10 02:48:39;;;;;;;18.23;8.18;;;2.20;99.90;;;;;;4872411;29;20053;-83
2021/01/10 02:51:04;;;;;;;12.45;8.68;;;2.20;99.90;;;;;;4861920;29;20426;-81
2021/01/10 02:53:30;;;;;;;17.85;7.82;;;2.20;99.90;;;;;;4856037;29;20037;-82
2021/01/10 02:55:56;;;;;;;16.67;7.45;;;2.10;99.90;;;;;;4850584;29;20033;-81
2021/01/10 02:59:05;;;;;;;;;;;;;;;;;;;;;
2021/01/10 03:02:35;;;;;;;13.57;8.35;;;2.10;99.90;;;;;;4863256;29;20106;-82
2021/01/10 03:05:38;;;;;;;16.00;6.88;;;2.10;99.90;;;;;;4862814;29;20085;-83
2021/01/10 03:12:05;;;;;;;;;;;;;;;;;;;;;
2021/01/10 03:14:25;;;;;;;22.02;7.45;;;2.10;99.90;;;;;;4862167;29;20026;-81
2021/01/10 03:20:34;;;;;;;;;;;2.10;99.90;;;;;;4854289;29;20419;-81
2021/01/10 03:23:00;;;;;;;12.77;7.05;;;2.10;99.90;;;;;;4847581;29;19912;-78
2021/01/10 03:25:30;;;;;;;11.57;5.90;;;2.10;99.90;;;;;;4848882;29;20364;-80
2021/01/10 03:31:19;;;;;;;13.82;6.28;;;2.10;99.90;;;;;;4837399;29;20026;-80
2021/01/10 03:34:02;;;;;;;10.27;4.47;;;2.10;99.90;;;;;;4818566;29;20038;-82
2021/01/10 03:39:54;;;;;;;13.85;6.15;;;2.20;99.90;;;;;;4866319;29;20048;-81
2021/01/10 03:42:26;;;;;;;11.93;6.32;;;2.30;99.90;;;;;;4863733;29;20112;-82
2021/01/10 03:44:51;;;;;;;12.32;5.57;;;2.30;99.90;;;;;;4861893;29;20037;-79
2021/01/10 03:47:17;;;;;;;7.53;5.43;;;2.40;99.90;;;;;;4861612;29;20554;-79
2021/01/10 03:50:04;;;;;;;9.90;5.43;;;2.40;99.90;;;;;;4858435;29;20041;-80
2021/01/10 03:52:29;;;;;;;12.32;5.07;;;2.40;99.90;;;;;;4868879;29;20045;-81
2021/01/10 03:55:17;;;;;;;13.02;6.05;;;2.40;99.90;;;;;;4881075;29;20018;-83
2021/01/10 03:57:43;;;;;;;13.02;5.82;;;2.50;99.90;;;;;;4861195;29;20579;-79
2021/01/10 04:00:10;;;;;;;10.85;6.30;;;2.50;99.90;;;;;;4862957;29;20029;-83
2021/01/10 04:02:37;;;;;;;7.47;3.88;;;2.50;99.90;;;;;;4872214;29;20110;-80
2021/01/10 04:05:18;;;;;;;;;;;;;;;;;;;;;
2021/01/10 04:08:07;;;;;;;14.70;5.80;;;2.50;99.90;;;;;;4863003;29;20029;-82
2021/01/10 04:13:44;;;;;;;14.98;5.72;;;2.60;99.90;;;;;;4855227;29;20065;-82
2021/01/10 04:16:13;;;;;;;10.50;5.90;;;2.60;99.90;;;;;;4853934;29;20075;-82
2021/01/10 04:18:42;;;;;;;15.90;6.25;;;2.50;99.90;;;;;;4875137;29;20041;-80
2021/01/10 04:21:08;;;;;;;11.02;5.28;;;2.50;99.90;;;;;;4871787;29;20033;-80
2021/01/10 04:23:34;;;;;;;8.57;4.93;;;2.40;99.90;;;;;;4866560;29;20030;-80
2021/01/10 04:26:00;;;;;;;14.73;6.13;;;2.40;99.90;;;;;;4860838;29;20021;-80
2021/01/10 04:29:19;;;;;;;;;;;;;;;;;;;;;
2021/01/10 04:35:03;;;;;;;13.07;5.53;;;2.30;99.90;;;;;;4843859;29;20038;-82
2021/01/10 04:38:23;;;;;;;;;;;;;;;;;;;;;
2021/01/10 04:41:27;;;;;;;;;;;;;;;;;;;;;
2021/01/10 04:43:54;;;;;;;15.18;6.07;;;2.10;99.90;;;;;;4870631;29;20152;-80
2021/01/10 04:47:12;;;;;;;10.27;5.60;;;2.00;99.90;;;;;;4863457;29;20128;-83
2021/01/10 04:49:47;;;;;;;9.55;5.68;;;1.90;99.90;;;;;;4850403;29;20566;-83
2021/01/10 04:56:27;;;;;;;11.38;5.30;;;1.80;99.90;;;;;;4875394;29;20029;-84
2021/01/10 04:59:48;;;;;;;;;;;;;;;;;;;;;
2021/01/10 05:03:09;;;;;;;;;;;;;;;;;;;;;
2021/01/10 05:12:36;;;;;;;;;;;;;;;;;;;;;
2021/01/10 05:15:34;;;;;;;;;;;;;;;;;;;;;
2021/01/10 05:21:19;;;;;;;;;;;;;;;;;;;;;
2021/01/10 05:24:31;;;;;;;;;;;;;;;;;;;;;
2021/01/10 05:26:54;;;;;;;10.45;5.85;;;1.70;99.90;;;;;;4852060;29;20034;-81
2021/01/10 05:29:22;;;;;;;12.73;5.63;;;1.70;99.90;;;;;;4855151;29;20025;-79
2021/01/10 05:32:19;;;;;;;;;;;;;;;;;;;;;
2021/01/10 05:35:02;;;;;;;16.48;6.78;;;1.70;99.90;;;;;;4865758;29;20040;-81
2021/01/10 05:37:55;;;;;;;13.23;6.18;;;1.70;99.90;;;;;;4868521;29;20033;-81
2021/01/10 05:40:46;;;;;;;10.25;5.82;;;1.70;99.90;;;;;;4887202;29;20040;-80
2021/01/10 05:50:18;;;;;;;;;;;;;;;;;;;;;
2021/01/10 05:52:59;;;;;;;11.52;5.22;;;1.80;99.90;;;;;;4774838;29;20703;-82
2021/01/10 05:55:25;;;;;;;16.40;7.25;;;1.80;99.90;;;;;;4807059;29;20043;-82
2021/01/10 05:57:54;;;;;;;8.82;5.60;;;1.80;99.90;;;;;;4844577;29;20049;-81
2021/01/10 06:01:10;;;;;;;15.07;6.13;;;1.80;99.90;;;;;;4863291;29;20029;-81
2021/01/10 06:04:06;;;;;;;;;;;;;;;;;;;;;
2021/01/10 06:10:45;;;;;;;;;;;;;;;;;;;;;
2021/01/10 06:13:29;;;;;;;10.43;4.85;;;2.00;99.90;;;;;;4863091;29;20029;-81
2021/01/10 06:16:05;;;;;;;;;;;;;;;;;;;;;
2021/01/10 06:19:26;;;;;;;;;;;;;;;;;;;;;
2021/01/10 06:21:51;;;;;;;9.60;5.20;;;2.00;99.90;;;;;;4862434;29;20039;-82
2021/01/10 06:24:37;;;;;;;;;;;;;;;;;;;;;
2021/01/10 06:27:08;;;;;;;8.50;5.10;;;1.90;99.90;;;;;;4864025;29;20045;-81
2021/01/10 06:29:47;;;;;;;11.98;4.97;;;1.90;99.90;;;;;;4860140;29;20061;-81
2021/01/10 06:33:13;;;;;;;;;;;;;;;;;;;;;
2021/01/10 06:36:21;;;;;;;;;;;;;;;;;;;;;
2021/01/10 06:39:21;;;;;;;;;;;;;;;;;;;;;
2021/01/10 06:42:00;;;;;;;;;;;;;;;;;;;;;
2021/01/10 06:48:05;;;;;;;;;;;;;;;;;;;;;
2021/01/10 06:54:48;;;;;;;;;;;;;;;;;;;;;
2021/01/10 06:58:05;;;;;;;;;;;;;;;;;;;;;
2021/01/10 07:01:32;;;;;;;;;;;;;;;;;;;;;
2021/01/10 07:04:28;;;;;;;;;;;;;;;;;;;;;
2021/01/10 07:07:30;;;;;;;;;;;;;;;;;;;;;
2021/01/10 07:10:01;;;;;;;10.07;5.32;;;2.30;99.90;;;;;;4848721;29;20034;-82
2021/01/10 07:12:37;;;;;;;;;;;;;;;;;;;;;
2021/01/10 07:15:18;;;;;;;8.00;5.00;;;2.40;99.90;;;;;;4850839;29;20022;-80
2021/01/10 07:18:07;;;;;;;8.10;5.22;;;2.50;99.90;;;;;;4836120;29;20385;-81
2021/01/10 07:20:44;;;;;;;9.25;5.10;;;2.50;99.90;;;;;;4853784;29;20112;-81
2021/01/10 07:23:27;;;;;;;10.63;4.63;;;2.60;99.90;;;;;;4834060;29;20051;-81
2021/01/10 07:25:53;;;;;;;11.00;5.25;;;2.60;99.90;;;;;;4825884;29;20499;-80
2021/01/10 07:28:35;;;;;;;11.38;5.22;;;2.70;99.90;;;;;;4834158;29;20484;-81
2021/01/10 07:31:12;;;;;;;10.07;5.25;;;2.70;99.90;;;;;;4843532;29;20409;-82
2021/01/10 07:33:39;;;;;;;8.18;4.97;;;2.70;99.90;;;;;;4844646;29;20026;-81
2021/01/10 07:36:15;;;;;;;7.75;4.80;;;2.80;99.90;;;;;;4844821;29;20090;-82
2021/01/10 07:38:52;;;;;;;;;;;;;;;;;;;;;
2021/01/10 07:41:45;;;;;;;13.20;5.03;;;2.80;99.90;;;;;;4844792;29;20022;-81
2021/01/10 07:44:21;;;;;;;8.20;5.20;;;2.80;99.90;;;;;;4848015;29;20026;-81
2021/01/10 07:46:53;;;;;;;9.57;5.57;;;2.90;99.90;;;;;;4851602;29;20100;-82
2021/01/10 07:49:32;;;;;;;7.82;5.13;;;2.90;99.90;;;;;;4855706;29;20140;-82
2021/01/10 07:52:08;;;;;;;6.32;4.68;;;2.90;99.90;;;;;;4861463;29;20045;-82
2021/01/10 07:55:08;;;;;;;;;;;;;;;;;;;;;
2021/01/10 07:57:41;;;;;;;12.32;4.72;;;2.80;99.90;;;;;;4862512;29;20041;-81
2021/01/10 08:04:02;;;;;;;;;;;;;;;;;;;;;
2021/01/10 08:07:30;;;;;;;;;;;;;;;;;;;;;
2021/01/10 08:10:22;;;;;;;10.43;4.63;;;3.00;99.90;;;;;;4841658;29;20509;-82
2021/01/10 08:12:53;;;;;;;11.88;4.47;;;3.00;99.90;;;;;;4843635;29;20491;-82
2021/01/10 08:15:48;;;;;;;6.03;3.78;;;3.00;99.90;;;;;;4873472;29;20030;-82
2021/01/10 08:18:22;;;;;;;5.57;3.75;;;3.10;99.90;;;;;;4869003;29;20063;-82
2021/01/10 08:20:57;;;;;;;8.93;4.28;;;3.10;99.90;;;;;;4879955;29;20037;-80
2021/01/10 08:23:31;;;;;;;8.63;5.07;;;3.00;99.90;;;;;;4868553;29;20033;-82
2021/01/10 08:29:42;;;;;;;;;;;;;;;;;;;;;
2021/01/10 08:33:07;;;;;;;;;;;;;;;;;;;;;
2021/01/10 08:36:12;;;;;;;;;;;;;;;;;;;;;
2021/01/10 08:39:12;;;;;;;60.50;20.77;;;3.20;99.90;;;;;;4871865;29;20059;-82
2021/01/10 08:41:49;;;;;;;308.45;116.95;;;3.30;99.90;;;;;;4841803;29;20044;-82
2021/01/10 08:45:11;;;;;;;;;;;;;;;;;;;;;
2021/01/10 08:51:09;;;;;;;7.05;3.83;;;3.40;99.90;;;;;;4848780;29;20074;-81
2021/01/10 09:04:00;;;;;;;6.80;3.50;;;3.40;99.90;;;;;;4833796;29;20048;-82
2021/01/10 09:06:52;;;;;;;3.38;2.97;;;3.40;99.90;;;;;;4839165;29;20080;-82
2021/01/10 09:09:42;;;;;;;5.15;3.30;;;3.40;99.90;;;;;;4854061;29;20026;-82
2021/01/10 09:12:35;;;;;;;9.80;3.20;;;3.50;99.90;;;;;;4833761;29;20033;-81
2021/01/10 09:15:19;;;;;;;8.98;3.33;;;3.60;99.90;;;;;;4829541;29;20032;-82
2021/01/10 09:17:48;;;;;;;7.80;3.45;;;3.60;99.90;;;;;;4837831;29;20026;-81
2021/01/10 09:20:18;;;;;;;9.98;4.32;;;3.70;99.90;;;;;;4844973;29;20037;-82
2021/01/10 09:22:44;;;;;;;7.40;4.00;;;3.80;99.90;;;;;;4857087;29;20120;-81
2021/01/10 09:25:15;;;;;;;11.73;3.38;;;3.90;99.90;;;;;;4830724;29;20471;-81
2021/01/10 09:28:29;;;;;;;8.90;3.58;;;3.80;99.90;;;;;;4829050;29;20030;-81
2021/01/10 09:31:32;;;;;;;7.30;4.28;;;3.80;99.90;;;;;;4838641;29;20098;-81
2021/01/10 09:34:20;;;;;;;18.77;4.47;;;3.70;99.90;;;;;;4844025;29;20030;-81
2021/01/10 09:36:46;;;;;;;;;;;3.60;99.90;;;;;;4845173;29;20125;-82
2021/01/10 09:42:26;;;;;;;;;;;;;;;;;;;;;
2021/01/10 09:47:59;;;;;;;8.70;3.97;;;3.70;99.90;;;;;;4838981;29;20511;-81
2021/01/10 09:50:48;;;;;;;;;;;;;;;;;;;;;
2021/01/10 09:57:28;;;;;;;;;;;;;;;;;;;;;
2021/01/10 10:00:18;;;;;;;;;;;;;;;;;;;;;
2021/01/10 10:06:54;;;;;;;11.43;3.70;;;4.10;99.90;;;;;;4770817;30;20071;-80
2021/01/10 10:10:37;;;;;;;;;;;;;;;;;;;;;
2021/01/10 10:20:05;;;;;;;5.32;3.33;;;4.40;99.90;;;;;;4776479;29;20564;-82
2021/01/10 10:23:26;;;;;;;;;;;;;;;;;;;;;
2021/01/10 10:25:52;;;;;;;9.38;3.38;;;4.60;99.90;;;;;;4865017;29;20554;-79
2021/01/10 10:28:22;;;;;;;6.85;3.30;;;4.60;99.90;;;;;;4852332;29;20032;-77
2021/01/10 10:30:48;;;;;;;8.38;4.35;;;4.70;99.90;;;;;;4847755;29;20078;-81
2021/01/10 10:33:16;;;;;;;6.30;2.80;;;4.70;99.90;;;;;;4846544;29;20097;-76
2021/01/10 10:35:50;;;;;;;5.47;2.88;;;4.80;99.90;;;;;;4862446;29;20038;-76
2021/01/10 10:38:15;;;;;;;9.18;3.08;;;4.90;99.90;;;;;;4847140;29;20069;-78
2021/01/10 10:40:41;;;;;;;6.82;2.67;;;5.00;99.90;;;;;;4848938;29;20022;-81
2021/01/10 10:43:25;;;;;;;6.30;2.83;;;5.00;99.90;;;;;;4850541;29;20182;-82
2021/01/10 10:46:07;;;;;;;6.07;3.08;;;5.10;99.90;;;;;;4861338;29;20386;-80
2021/01/10 10:48:50;;;;;;;;;;;;;;;;;;;;;
2021/01/10 10:52:06;;;;;;;;;;;;;;;;;;;;;
2021/01/10 10:58:15;;;;;;;;;;;;;;;;;;;;;
2021/01/10 11:00:54;;;;;;;;;;;;;;;;;;;;;
2021/01/10 11:06:52;;;;;;;4.20;2.90;;;5.50;99.90;;;;;;4853678;29;20041;-79
2021/01/10 11:09:20;;;;;;;7.32;2.83;;;5.50;99.90;;;;;;4849897;29;20038;-78
2021/01/10 11:12:07;;;;;;;;;;;5.40;99.90;;;;;;4849257;29;20029;-82
2021/01/10 11:14:33;;;;;;;8.65;2.65;;;5.50;99.90;;;;;;4866776;29;19972;-80
2021/01/10 11:16:59;;;;;;;4.28;3.30;;;5.50;99.90;;;;;;4863528;29;20546;-81
2021/01/10 11:19:27;;;;;;;8.60;2.90;;;5.50;99.90;;;;;;4845729;29;20053;-80
2021/01/10 11:21:54;;;;;;;5.47;3.40;;;5.60;99.90;;;;;;4849649;29;20041;-81
2021/01/10 11:24:30;;;;;;;7.25;2.80;;;5.70;99.90;;;;;;4862474;29;20038;-82
2021/01/10 11:27:27;;;;;;;;;;;;;;;;;;;;;
2021/01/10 11:29:58;;;;;;;8.65;3.45;;;5.90;99.90;;;;;;4824721;29;20037;-82
2021/01/10 11:32:46;;;;;;;10.13;3.40;;;6.00;99.90;;;;;;4821647;29;20046;-82
2021/01/10 11:35:12;;;;;;;10.52;3.80;;;6.00;99.90;;;;;;4831949;29;20039;-77
2021/01/10 11:37:38;;;;;;;12.85;4.22;;;6.00;99.90;;;;;;4827820;29;20045;-78
2021/01/10 11:40:04;;;;;;;6.13;3.35;;;6.00;99.90;;;;;;4812010;29;20033;-79
2021/01/10 11:42:31;;;;;;;7.93;2.95;;;6.10;99.90;;;;;;4814014;29;20049;-78
2021/01/10 11:44:57;;;;;;;7.10;3.03;;;6.10;99.90;;;;;;4825469;29;20045;-77
2021/01/10 11:47:26;;;;;;;5.35;3.60;;;6.20;99.90;;;;;;4810761;29;20050;-78
2021/01/10 11:49:52;;;;;;;5.88;3.15;;;6.30;99.90;;;;;;4812206;29;20057;-79
2021/01/10 11:52:18;;;;;;;7.32;3.42;;;6.50;99.90;;;;;;4857128;29;20100;-77
2021/01/10 11:54:44;;;;;;;11.82;3.28;;;6.60;99.90;;;;;;4846834;29;20037;-77
2021/01/10 11:57:09;;;;;;;27.52;5.72;;;6.70;99.90;;;;;;4844716;29;20041;-77
2021/01/10 12:00:02;;;;;;;6.88;3.92;;;6.70;99.90;;;;;;4860930;29;20101;-81
2021/01/10 12:02:43;;;;;;;16.77;5.15;;;6.80;99.90;;;;;;4874071;29;20029;-83
2021/01/10 12:05:09;;;;;;;9.90;3.30;;;6.90;99.90;;;;;;4855489;29;20376;-78
2021/01/10 12:07:37;;;;;;;5.22;3.20;;;6.90;99.90;;;;;;4849338;29;20108;-79
2021/01/10 12:10:20;;;;;;;7.65;3.65;;;6.80;99.90;;;;;;4867923;29;20029;-84
2021/01/10 12:12:46;;;;;;;5.70;3.28;;;6.80;99.90;;;;;;4843839;29;20021;-80
2021/01/10 12:15:13;;;;;;;7.50;4.13;;;6.80;99.90;;;;;;4843552;29;20097;-79
2021/01/10 12:17:42;;;;;;;5.23;2.70;;;6.70;99.90;;;;;;4840979;29;20501;-79
2021/01/10 12:20:08;;;;;;;6.07;3.95;;;6.70;99.90;;;;;;4851013;29;20034;-81
2021/01/10 12:22:37;;;;;;;4.38;3.47;;;6.70;99.90;;;;;;4847716;29;20033;-80
2021/01/10 12:25:11;;;;;;;8.00;3.85;;;6.70;99.90;;;;;;4869540;29;20025;-82
2021/01/10 12:27:37;;;;;;;5.93;3.13;;;6.80;99.90;;;;;;4855810;29;20038;-82
2021/01/10 12:30:20;;;;;;;;;;;;;;;;;;;;;
2021/01/10 12:32:51;;;;;;;6.72;3.70;;;7.00;99.90;;;;;;4871531;29;20089;-82
2021/01/10 12:35:20;;;;;;;4.00;2.90;;;7.10;99.90;;;;;;4851127;29;20076;-81
2021/01/10 12:37:58;;;;;;;6.95;3.65;;;7.10;99.90;;;;;;4856053;29;20034;-80
2021/01/10 12:40:24;;;;;;;6.60;3.85;;;7.20;99.90;;;;;;4868503;29;20021;-81
2021/01/10 12:42:50;;;;;;;6.55;4.03;;;7.10;99.90;;;;;;4856807;29;20030;-81
2021/01/10 12:45:25;;;;;;;8.95;4.03;;;7.10;99.90;;;;;;4869206;29;20089;-82
2021/01/10 12:47:56;;;;;;;9.98;4.20;;;7.10;99.90;;;;;;4857340;29;20036;-85
2021/01/10 12:50:22;;;;;;;15.38;4.75;;;7.10;99.90;;;;;;4871856;29;20038;-81
2021/01/10 12:52:48;;;;;;;7.20;3.63;;;7.10;99.90;;;;;;4865160;29;20030;-79
2021/01/10 12:55:14;;;;;;;9.27;4.03;;;7.10;99.90;;;;;;4846206;29;20406;-82
2021/01/10 12:57:44;;;;;;;11.05;4.15;;;7.10;99.90;;;;;;4869266;29;20554;-84
2021/01/10 13:00:11;;;;;;;5.57;4.40;;;7.10;99.90;;;;;;4865302;29;20034;-81
2021/01/10 13:02:39;;;;;;;7.68;3.85;;;7.00;99.90;;;;;;4851113;29;20052;-82
2021/01/10 13:05:44;;;;;;;;;;;;;;;;;;;;;
2021/01/10 13:08:41;;;;;;;;;;;;;;;;;;;;;
2021/01/10 13:11:31;;;;;;;7.38;4.10;;;6.80;99.90;;;;;;4870678;29;20113;-83
2021/01/10 13:14:19;;;;;;;8.70;4.35;;;6.70;99.90;;;;;;4841426;29;20447;-83
2021/01/10 13:16:48;;;;;;;7.20;4.38;;;6.60;99.90;;;;;;4851625;29;20032;-83
2021/01/10 13:19:15;;;;;;;9.15;4.30;;;6.60;99.90;;;;;;4866457;29;20066;-81
2021/01/10 13:25:13;;;;;;;7.70;4.22;;;6.90;99.90;;;;;;4846530;29;20037;-82
2021/01/10 13:28:07;;;;;;;7.55;4.47;;;7.00;99.90;;;;;;4865792;29;20037;-86
2021/01/10 13:30:34;;;;;;;10.45;4.53;;;7.00;99.90;;;;;;4862198;29;20186;-80
2021/01/10 13:33:03;;;;;;;8.10;4.05;;;7.00;99.90;;;;;;4871509;29;20018;-82
2021/01/10 13:35:59;;;;;;;9.52;4.43;;;7.00;99.90;;;;;;4858289;29;20036;-83
2021/01/10 13:38:47;;;;;;;;;;;;;;;;;;;;;
2021/01/10 13:41:15;;;;;;;6.88;4.55;;;6.80;99.90;;;;;;4862307;29;20045;-78
2021/01/10 13:43:41;;;;;;;11.98;4.63;;;6.70;99.90;;;;;;4853274;29;20034;-77
2021/01/10 13:46:25;;;;;;;;;;;;;;;;;;;;;
2021/01/10 13:48:53;;;;;;;6.47;4.03;;;6.80;99.90;;;;;;4870593;29;20073;-78
2021/01/10 13:51:24;;;;;;;7.28;4.05;;;6.70;99.90;;;;;;4843158;29;20042;-79
2021/01/10 13:53:55;;;;;;;9.80;4.68;;;6.70;99.90;;;;;;4833922;29;20038;-82
2021/01/10 13:56:28;;;;;;;9.68;4.85;;;6.70;99.90;;;;;;4833405;29;20511;-79
2021/01/10 13:58:55;;;;;;;9.82;4.95;;;6.70;99.90;;;;;;4847502;29;20075;-79
2021/01/10 14:01:35;;;;;;;6.82;3.92;;;6.60;99.90;;;;;;4830250;29;20053;-80
2021/01/10 14:04:02;;;;;;;7.03;4.25;;;6.60;99.90;;;;;;4842450;29;20030;-77
2021/01/10 14:06:28;;;;;;;9.23;4.30;;;6.60;99.90;;;;;;4827792;29;20053;-78
2021/01/10 14:08:56;;;;;;;7.50;4.25;;;6.60;99.90;;;;;;4829696;29;20112;-76
2021/01/10 14:11:27;;;;;;;8.07;4.25;;;6.50;99.90;;;;;;4827651;29;20038;-78
2021/01/10 14:13:54;;;;;;;8.30;4.50;;;6.60;99.90;;;;;;4841775;29;20029;-76
2021/01/10 14:16:21;;;;;;;8.97;4.30;;;6.50;99.90;;;;;;4843344;29;20061;-77
2021/01/10 14:18:51;;;;;;;5.82;4.38;;;6.50;99.90;;;;;;4849427;29;20041;-78
2021/01/10 14:21:34;;;;;;;8.73;5.32;;;6.50;99.90;;;;;;4845205;29;20034;-78
2021/01/10 14:24:05;;;;;;;7.93;4.80;;;6.60;99.90;;;;;;4847986;29;20109;-76
2021/01/10 14:26:41;;;;;;;25.17;13.48;;;6.60;99.90;;;;;;4871724;29;20042;-75
2021/01/10 14:29:12;;;;;;;12.55;6.18;;;6.60;99.90;;;;;;4851450;29;20037;-74
2021/01/10 14:31:46;;;;;;;10.60;5.05;;;6.60;99.90;;;;;;4828383;29;20046;-77
2021/01/10 14:34:13;;;;;;;9.23;5.00;;;6.60;99.90;;;;;;4862507;29;20483;-78
2021/01/10 14:36:39;;;;;;;8.65;4.70;;;6.60;99.90;;;;;;4863709;29;20033;-80
2021/01/10 14:39:06;;;;;;;20.63;10.60;;;6.50;99.90;;;;;;4846973;29;20132;-80
2021/01/10 14:41:32;;;;;;;14.57;6.55;;;6.60;99.90;;;;;;4863464;29;20041;-80
2021/01/10 14:43:58;;;;;;;8.07;5.03;;;6.50;99.90;;;;;;4860091;29;20046;-77
2021/01/10 14:46:25;;;;;;;11.10;5.55;;;6.40;99.90;;;;;;4845994;29;20041;-77
2021/01/10 14:48:52;;;;;;;33.90;21.27;;;6.40;99.90;;;;;;4846433;29;20037;-77
2021/01/10 14:51:22;;;;;;;10.65;6.15;;;6.30;99.90;;;;;;4855865;29;20029;-79
2021/01/10 14:53:53;;;;;;;5.75;4.88;;;6.30;99.90;;;;;;4860494;29;20064;-77
2021/01/10 14:56:27;;;;;;;10.25;5.60;;;6.30;99.90;;;;;;4866637;29;20029;-77
2021/01/10 14:58:54;;;;;;;268.15;134.38;;;6.30;99.90;;;;;;4863322;29;20033;-79
2021/01/10 15:01:22;;;;;;;16.25;8.30;;;6.20;99.90;;;;;;4883499;29;20124;-80
2021/01/10 15:03:59;;;;;;;11.43;5.75;;;6.20;99.90;;;;;;4866987;29;20446;-78
2021/01/10 15:06:26;;;;;;;12.55;5.88;;;6.30;99.90;;;;;;4856587;29;20034;-78
2021/01/10 15:08:53;;;;;;;21.92;12.50;;;6.30;99.90;;;;;;4871232;29;20044;-79
2021/01/10 15:11:26;;;;;;;11.15;6.18;;;6.20;99.90;;;;;;4861800;29;20058;-77
2021/01/10 15:13:57;;;;;;;9.70;5.03;;;6.20;99.90;;;;;;4871472;29;20132;-80
2021/01/10 15:16:25;;;;;;;9.50;5.35;;;6.30;99.90;;;;;;4866837;29;20061;-79
2021/01/10 15:19:00;;;;;;;9.47;4.57;;;6.30;99.90;;;;;;4861413;29;20491;-79
2021/01/10 15:21:27;;;;;;;16.05;5.80;;;6.20;99.90;;;;;;4863011;29;20042;-76
2021/01/10 15:23:53;;;;;;;9.75;5.13;;;6.20;99.90;;;;;;4874584;29;20048;-77
2021/01/10 15:26:54;;;;;;;10.30;5.50;;;6.20;99.90;;;;;;4870490;29;20037;-82
2021/01/10 15:29:19;;;;;;;10.25;5.72;;;6.20;99.90;;;;;;4862462;29;20104;-76
2021/01/10 15:31:46;;;;;;;15.77;7.57;;;6.20;99.90;;;;;;4876355;29;20057;-80
2021/01/10 15:34:12;;;;;;;9.77;5.77;;;6.20;99.90;;;;;;4860863;29;20040;-77
2021/01/10 15:36:39;;;;;;;8.60;5.70;;;6.20;99.90;;;;;;4863607;29;20029;-82
2021/01/10 15:39:05;;;;;;;10.88;6.35;;;6.10;99.90;;;;;;4859274;29;20382;-77
2021/01/10 15:41:30;;;;;;;11.38;5.88;;;6.10;99.90;;;;;;4863503;29;20112;-76
2021/01/10 15:43:56;;;;;;;12.38;6.20;;;6.10;99.90;;;;;;4869607;29;20034;-76
2021/01/10 15:46:22;;;;;;;12.93;5.82;;;6.10;99.90;;;;;;4860807;29;20041;-77
2021/01/10 15:48:48;;;;;;;12.35;6.15;;;6.00;99.90;;;;;;4875035;29;20105;-77
2021/01/10 15:51:14;;;;;;;10.70;5.90;;;6.10;99.90;;;;;;4864381;29;20100;-76
2021/01/10 15:53:40;;;;;;;11.60;6.35;;;6.10;99.90;;;;;;4859690;29;20029;-77
2021/01/10 15:56:11;;;;;;;8.90;5.60;;;6.10;99.90;;;;;;4861959;29;20043;-78
2021/01/10 15:58:41;;;;;;;12.40;6.45;;;5.90;99.90;;;;;;4858124;29;20044;-77
2021/01/10 16:01:10;;;;;;;11.40;6.13;;;5.90;99.90;;;;;;4860784;29;20037;-79
2021/01/10 16:03:38;;;;;;;21.20;13.65;;;6.00;99.90;;;;;;4859720;29;20391;-78
2021/01/10 16:06:08;;;;;;;11.85;6.50;;;5.90;99.90;;;;;;4861674;29;20039;-79
2021/01/10 16:08:37;;;;;;;10.93;6.35;;;5.80;99.90;;;;;;4859374;29;20402;-77
2021/01/10 16:11:21;;;;;;;;;;;;;;;;;;;;;
2021/01/10 16:13:48;;;;;;;15.48;8.98;;;5.80;99.90;;;;;;4862484;29;20467;-78
2021/01/10 16:16:22;;;;;;;21.77;9.15;;;5.80;99.90;;;;;;4858124;29;20057;-79
2021/01/10 16:18:48;;;;;;;12.25;7.35;;;5.80;99.90;;;;;;4853289;29;20368;-77
2021/01/10 16:21:14;;;;;;;12.52;7.68;;;5.80;99.90;;;;;;4858755;29;20086;-77
2021/01/10 16:23:42;;;;;;;13.32;7.53;;;5.70;99.90;;;;;;4857965;29;20034;-78
2021/01/10 16:26:09;;;;;;;10.48;7.25;;;5.70;99.90;;;;;;4861403;29;20051;-80
2021/01/10 16:28:35;;;;;;;15.20;7.32;;;5.70;99.90;;;;;;4880091;29;20032;-77
2021/01/10 16:31:01;;;;;;;13.30;7.43;;;5.70;99.90;;;;;;4852370;29;20113;-78
2021/01/10 16:33:27;;;;;;;11.48;7.22;;;5.70;99.90;;;;;;4844771;29;20565;-77
2021/01/10 16:35:52;;;;;;;11.02;7.50;;;5.70;99.90;;;;;;4878270;29;20565;-77
2021/01/10 16:38:18;;;;;;;11.90;7.43;;;5.70;99.90;;;;;;4875731;29;20044;-76
2021/01/10 16:40:46;;;;;;;14.02;7.88;;;5.80;99.90;;;;;;4864221;29;20041;-75
2021/01/10 16:43:12;;;;;;;12.93;7.63;;;5.70;99.90;;;;;;4860408;29;20236;-76
2021/01/10 16:45:51;;;;;;;13.27;8.15;;;5.70;99.90;;;;;;4862081;29;20117;-77
2021/01/10 16:48:17;;;;;;;26.05;13.38;;;5.80;99.90;;;;;;4860758;29;20570;-77
2021/01/10 16:50:42;;;;;;;13.10;7.68;;;5.70;99.90;;;;;;4858701;29;20046;-78
2021/01/10 16:53:08;;;;;;;12.68;7.50;;;5.80;99.90;;;;;;4860019;29;20380;-79
2021/01/10 16:55:35;;;;;;;9.68;7.05;;;5.70;99.90;;;;;;4860582;29;20040;-80
2021/01/10 16:58:12;;;;;;;8.93;6.38;;;5.80;99.90;;;;;;4862447;29;20108;-81
2021/01/10 17:00:51;;;;;;;10.10;6.60;;;5.80;99.90;;;;;;4862386;29;20067;-79
2021/01/10 17:03:16;;;;;;;11.20;7.30;;;5.80;99.90;;;;;;4860695;29;20041;-78
2021/01/10 17:05:42;;;;;;;11.38;6.53;;;5.80;99.90;;;;;;4864392;29;20048;-83
2021/01/10 17:08:11;;;;;;;12.05;8.10;;;5.70;99.90;;;;;;4859693;29;20420;-79
2021/01/10 17:10:39;;;;;;;11.10;8.13;;;5.70;99.90;;;;;;4860901;29;20029;-78
2021/01/10 17:16:00;;;;;;;12.57;7.40;;;5.70;99.90;;;;;;4860149;29;20037;-75
2021/01/10 17:18:26;;;;;;;11.95;8.55;;;5.70;99.90;;;;;;4866102;29;20036;-77
2021/01/10 17:20:53;;;;;;;11.77;7.53;;;5.60;99.90;;;;;;4865888;29;20029;-78
2021/01/10 17:23:18;;;;;;;10.48;7.35;;;5.60;99.90;;;;;;4876995;29;20546;-78
2021/01/10 17:25:44;;;;;;;13.32;8.07;;;5.60;99.90;;;;;;4872030;29;20038;-79
2021/01/10 17:28:10;;;;;;;14.40;7.82;;;5.60;99.90;;;;;;4870314;29;20022;-80
2021/01/10 17:30:36;;;;;;;14.43;7.90;;;5.60;99.90;;;;;;4863159;29;20179;-80
2021/01/10 17:33:02;;;;;;;12.90;6.57;;;5.50;99.90;;;;;;4862447;29;20029;-79
2021/01/10 17:35:28;;;;;;;14.13;7.15;;;5.50;99.90;;;;;;4868521;29;20030;-80
2021/01/10 17:37:54;;;;;;;9.85;6.68;;;5.50;99.90;;;;;;4864111;29;20041;-80
2021/01/10 17:40:19;;;;;;;12.45;7.13;;;5.50;99.90;;;;;;4844571;29;20034;-80